Terminal Aerodrome Forecast
Issued by NWS

Home | Current Version | Previous Version | Text Only | Print | Product List | Glossary On
Versions: 1 2 3 4 5 6 7 8 9 10 11 12
000
FTUS44 KLZK 251700
TAFLIT
TAF
KLIT 251735Z 2518/2618 26008KT P6SM SKC
     FM260000 23003KT P6SM SKC
     FM260700 00000KT 5SM BR SCT250
     FM261000 00000KT 3SM BR SCT004
      TEMPO 2610/2613 1SM BR BKN004
     FM261400 21008KT P6SM SCT250=

USA.gov is the U.S. government's official web portal to all federal, state and local government web resources and services.